Valemount, Canada
Current Conditions -  °F | °C
As of 11:00 AM on Tuesday 21 Oct 2014 (Local Time) from CYWL Reporting Station
Few Clouds Few Clouds  
Wind Chill: 39°   Ceiling: Unl
Heat Index: 46°   Visibility: 15mi
Dew Point: 37°   Wind: 18mph
Humidity: 71%   Direction: 120°ESE
Pressure: 29.65"   Gusts: 28mph
Location:  52.83°N, 119.25°W
Report Text: CYWL 211800Z 12016G24KT 15SM FEW050 FEW090 FEW210 08/03 A2965 RMK CF1AC2CI1 CF TR CI TR SLP057 DENSITY ALT 3300FT
Loading
Personal Weather Stations






























Interactive Weather Map
Tropical Storm Tracking
New forecast layout! Learn more

10-Day Weather Forecast

Advertisements
Track Severe Weather on mobile